This is the latest recevied weather packets stored in our database for station/object KD8UYA. If no packets are shown the sender has not sent any weather packets the latest 10 day(s).
| Time | Temp. | Humidity | Pressure | Rain* | Wind** | Luminosity | Snow |
|---|---|---|---|---|---|---|---|
| 1777582837 | 10° C | 62% | 1012.8 hPa | 0 mm | - | - | - |
| 1777581936 | 9.44° C | 66% | 1012.9 hPa | 0 mm | - | - | - |
| 1777581037 | 9.44° C | 65% | 1013 hPa | 0 mm | - | - | - |
| 1777580137 | 9.44° C | 64% | 1012.9 hPa | 0 mm | - | - | - |
| 1777579233 | 9.44° C | 67% | 1012.9 hPa | 0 mm | - | - | - |
| 1777578332 | 10° C | 64% | 1012.9 hPa | 0 mm | - | - | - |
| 1777577432 | 10° C | 63% | 1012.8 hPa | 0 mm | - | - | - |
| 1777576541 | 10° C | 63% | 1012.8 hPa | 0 mm | - | - | - |
| 1777575632 | 9.44° C | 70% | 1012.9 hPa | 0 mm | - | - | - |
| 1777574723 | 8.89° C | 80% | 1013 hPa | 0.25 mm | - | - | - |
| 1777573823 | 7.78° C | 83% | 1013.1 hPa | 0.25 mm | - | - | - |
| 1777572918 | 6.67° C | 88% | 1013.3 hPa | 0.25 mm | - | - | - |
| 1777572018 | 5.56° C | 89% | 1013.4 hPa | 0.25 mm | - | - | - |
| 1777571118 | 7.22° C | 85% | 1013.4 hPa | 0 mm | - | - | - |
| 1777570216 | 6.67° C | 85% | 1013.3 hPa | 0 mm | - | - | - |
| 1777569315 | 6.67° C | 86% | 1013.5 hPa | 0 mm | - | - | - |
| 1777568413 | 7.22° C | 80% | 1013.3 hPa | 0 mm | - | - | - |
| 1777567512 | 7.22° C | 79% | 1013.2 hPa | 0 mm | - | - | - |
| 1777566613 | 7.22° C | 80% | 1013.2 hPa | 0 mm | - | - | - |
| 1777565709 | 7.22° C | 81% | 1013.2 hPa | 0 mm | - | - | - |
| 1777564817 | 7.22° C | 82% | 1013.1 hPa | 0 mm | - | - | - |
| 1777563908 | 6.67° C | 82% | 1012.9 hPa | 0 mm | - | - | - |
| 1777563006 | 6.67° C | 84% | 1013.1 hPa | 0 mm | - | - | - |
| 1777562105 | 6.11° C | 84% | 1013.1 hPa | 0 mm | - | - | - |
| 1777561203 | 6.67° C | 83% | 1012.8 hPa | 0 mm | - | - | - |
* Rain latest hour (hover to see other rain measurements)
** Current wind speed in m/s (hover to see current wind gust speed)